sensor_id;sensor_type;location;lat;lon;timestamp;P1;durP1;ratioP1;P2;durP2;ratioP2
78143;SDS011;67394;52.522;13.622;2023-08-21T00:02:14;10.02;;;6.93;;
78143;SDS011;67394;52.522;13.622;2023-08-21T00:04:41;9.65;;;7.25;;
78143;SDS011;67394;52.522;13.622;2023-08-21T00:09:35;9.07;;;6.60;;
78143;SDS011;67394;52.522;13.622;2023-08-21T00:12:05;13.98;;;7.32;;
78143;SDS011;67394;52.522;13.622;2023-08-21T00:14:32;11.27;;;8.35;;
78143;SDS011;67394;52.522;13.622;2023-08-21T00:19:25;11.00;;;7.40;;
78143;SDS011;67394;52.522;13.622;2023-08-21T00:21:52;10.73;;;6.68;;
78143;SDS011;67394;52.522;13.622;2023-08-21T00:24:19;10.85;;;7.00;;
78143;SDS011;67394;52.522;13.622;2023-08-21T00:26:47;9.80;;;7.07;;
78143;SDS011;67394;52.522;13.622;2023-08-21T00:29:13;11.00;;;6.68;;
78143;SDS011;67394;52.522;13.622;2023-08-21T00:31:40;12.60;;;8.07;;
78143;SDS011;67394;52.522;13.622;2023-08-21T00:34:06;10.65;;;7.90;;
78143;SDS011;67394;52.522;13.622;2023-08-21T00:36:34;10.93;;;6.90;;
78143;SDS011;67394;52.522;13.622;2023-08-21T00:39:00;11.07;;;7.82;;
78143;SDS011;67394;52.522;13.622;2023-08-21T00:41:27;11.00;;;7.22;;
78143;SDS011;67394;52.522;13.622;2023-08-21T00:43:53;12.50;;;7.22;;
78143;SDS011;67394;52.522;13.622;2023-08-21T00:46:20;12.13;;;7.47;;
78143;SDS011;67394;52.522;13.622;2023-08-21T00:48:47;10.98;;;7.85;;
78143;SDS011;67394;52.522;13.622;2023-08-21T00:51:14;11.43;;;7.40;;
78143;SDS011;67394;52.522;13.622;2023-08-21T00:53:42;11.90;;;7.53;;
78143;SDS011;67394;52.522;13.622;2023-08-21T00:56:10;12.20;;;7.82;;
78143;SDS011;67394;52.522;13.622;2023-08-21T00:58:37;11.57;;;7.60;;
78143;SDS011;67394;52.522;13.622;2023-08-21T01:01:05;16.08;;;8.13;;
78143;SDS011;67394;52.522;13.622;2023-08-21T01:03:33;11.05;;;7.60;;
78143;SDS011;67394;52.522;13.622;2023-08-21T01:05:59;12.48;;;7.95;;
78143;SDS011;67394;52.522;13.622;2023-08-21T01:08:40;11.30;;;7.38;;
78143;SDS011;67394;52.522;13.622;2023-08-21T01:11:21;11.48;;;7.25;;
78143;SDS011;67394;52.522;13.622;2023-08-21T01:16:29;11.80;;;7.93;;
78143;SDS011;67394;52.522;13.622;2023-08-21T01:19:00;10.35;;;8.20;;
78143;SDS011;67394;52.522;13.622;2023-08-21T01:21:27;9.90;;;7.35;;
78143;SDS011;67394;52.522;13.622;2023-08-21T01:23:56;11.85;;;8.05;;
78143;SDS011;67394;52.522;13.622;2023-08-21T01:26:23;13.13;;;8.35;;
78143;SDS011;67394;52.522;13.622;2023-08-21T01:31:26;11.15;;;8.20;;
78143;SDS011;67394;52.522;13.622;2023-08-21T01:33:59;10.10;;;7.63;;
78143;SDS011;67394;52.522;13.622;2023-08-21T01:36:31;11.07;;;7.35;;
78143;SDS011;67394;52.522;13.622;2023-08-21T01:38:59;10.60;;;8.43;;
78143;SDS011;67394;52.522;13.622;2023-08-21T01:43:52;10.48;;;7.32;;
78143;SDS011;67394;52.522;13.622;2023-08-21T01:46:19;11.45;;;8.15;;
78143;SDS011;67394;52.522;13.622;2023-08-21T01:48:46;12.73;;;7.88;;
78143;SDS011;67394;52.522;13.622;2023-08-21T01:53:39;11.98;;;6.97;;
78143;SDS011;67394;52.522;13.622;2023-08-21T01:56:05;10.77;;;7.63;;
78143;SDS011;67394;52.522;13.622;2023-08-21T01:58:34;12.25;;;7.72;;
78143;SDS011;67394;52.522;13.622;2023-08-21T02:01:00;13.07;;;7.65;;
78143;SDS011;67394;52.522;13.622;2023-08-21T02:03:27;10.98;;;7.38;;
78143;SDS011;67394;52.522;13.622;2023-08-21T02:05:56;11.05;;;7.35;;
78143;SDS011;67394;52.522;13.622;2023-08-21T02:08:25;11.02;;;7.28;;
78143;SDS011;67394;52.522;13.622;2023-08-21T02:10:56;12.57;;;7.47;;
78143;SDS011;67394;52.522;13.622;2023-08-21T02:13:23;13.77;;;7.60;;
78143;SDS011;67394;52.522;13.622;2023-08-21T02:15:50;13.45;;;7.78;;
78143;SDS011;67394;52.522;13.622;2023-08-21T02:18:16;10.07;;;7.47;;
78143;SDS011;67394;52.522;13.622;2023-08-21T02:20:44;11.23;;;7.30;;
78143;SDS011;67394;52.522;13.622;2023-08-21T02:23:10;9.60;;;6.85;;
78143;SDS011;67394;52.522;13.622;2023-08-21T02:28:03;11.23;;;7.18;;
78143;SDS011;67394;52.522;13.622;2023-08-21T02:30:30;11.38;;;7.20;;
78143;SDS011;67394;52.522;13.622;2023-08-21T02:32:56;11.02;;;7.88;;
78143;SDS011;67394;52.522;13.622;2023-08-21T02:35:23;12.57;;;8.00;;
78143;SDS011;67394;52.522;13.622;2023-08-21T02:37:50;13.05;;;7.97;;
78143;SDS011;67394;52.522;13.622;2023-08-21T02:40:16;11.00;;;7.25;;
78143;SDS011;67394;52.522;13.622;2023-08-21T02:42:43;10.35;;;7.00;;
78143;SDS011;67394;52.522;13.622;2023-08-21T02:45:09;11.90;;;7.35;;
78143;SDS011;67394;52.522;13.622;2023-08-21T02:47:39;11.45;;;7.43;;
78143;SDS011;67394;52.522;13.622;2023-08-21T02:50:07;11.95;;;7.35;;
78143;SDS011;67394;52.522;13.622;2023-08-21T02:52:35;9.52;;;7.18;;
78143;SDS011;67394;52.522;13.622;2023-08-21T02:55:03;11.48;;;8.05;;
78143;SDS011;67394;52.522;13.622;2023-08-21T02:57:30;9.75;;;7.32;;
78143;SDS011;67394;52.522;13.622;2023-08-21T02:59:58;11.35;;;6.88;;
78143;SDS011;67394;52.522;13.622;2023-08-21T03:02:25;11.00;;;7.75;;
78143;SDS011;67394;52.522;13.622;2023-08-21T03:04:51;12.23;;;7.43;;
78143;SDS011;67394;52.522;13.622;2023-08-21T03:07:18;9.45;;;7.75;;
78143;SDS011;67394;52.522;13.622;2023-08-21T03:09:45;10.10;;;7.20;;
78143;SDS011;67394;52.522;13.622;2023-08-21T03:12:12;11.75;;;7.72;;
78143;SDS011;67394;52.522;13.622;2023-08-21T03:14:40;10.80;;;7.32;;
78143;SDS011;67394;52.522;13.622;2023-08-21T03:17:07;11.68;;;7.82;;
78143;SDS011;67394;52.522;13.622;2023-08-21T03:19:33;10.98;;;7.45;;
78143;SDS011;67394;52.522;13.622;2023-08-21T03:22:00;11.18;;;6.90;;
78143;SDS011;67394;52.522;13.622;2023-08-21T03:24:27;10.15;;;6.63;;
78143;SDS011;67394;52.522;13.622;2023-08-21T03:26:53;9.55;;;6.80;;
78143;SDS011;67394;52.522;13.622;2023-08-21T03:29:20;11.35;;;7.53;;
78143;SDS011;67394;52.522;13.622;2023-08-21T03:31:49;12.48;;;7.00;;
78143;SDS011;67394;52.522;13.622;2023-08-21T03:34:16;12.10;;;6.82;;
78143;SDS011;67394;52.522;13.622;2023-08-21T03:36:44;10.90;;;7.20;;
78143;SDS011;67394;52.522;13.622;2023-08-21T03:39:12;12.18;;;6.88;;
78143;SDS011;67394;52.522;13.622;2023-08-21T03:41:39;12.35;;;7.30;;
78143;SDS011;67394;52.522;13.622;2023-08-21T03:44:06;11.65;;;6.93;;
78143;SDS011;67394;52.522;13.622;2023-08-21T03:46:32;9.18;;;6.03;;
78143;SDS011;67394;52.522;13.622;2023-08-21T03:49:00;9.90;;;6.53;;
78143;SDS011;67394;52.522;13.622;2023-08-21T03:51:26;10.23;;;7.00;;
78143;SDS011;67394;52.522;13.622;2023-08-21T03:53:53;9.98;;;7.20;;
78143;SDS011;67394;52.522;13.622;2023-08-21T03:56:20;10.05;;;6.47;;
78143;SDS011;67394;52.522;13.622;2023-08-21T03:58:46;11.05;;;7.07;;
78143;SDS011;67394;52.522;13.622;2023-08-21T04:01:13;8.30;;;6.38;;
78143;SDS011;67394;52.522;13.622;2023-08-21T04:03:39;10.30;;;7.32;;
78143;SDS011;67394;52.522;13.622;2023-08-21T04:06:06;10.35;;;7.28;;
78143;SDS011;67394;52.522;13.622;2023-08-21T04:08:33;14.27;;;7.47;;
78143;SDS011;67394;52.522;13.622;2023-08-21T04:10:59;10.77;;;6.55;;
78143;SDS011;67394;52.522;13.622;2023-08-21T04:13:27;12.38;;;7.43;;
78143;SDS011;67394;52.522;13.622;2023-08-21T04:15:54;9.43;;;7.68;;
78143;SDS011;67394;52.522;13.622;2023-08-21T04:18:21;10.65;;;7.30;;
78143;SDS011;67394;52.522;13.622;2023-08-21T04:21:06;10.90;;;6.82;;
78143;SDS011;67394;52.522;13.622;2023-08-21T04:23:32;10.50;;;6.65;;
78143;SDS011;67394;52.522;13.622;2023-08-21T04:26:02;12.98;;;7.70;;
78143;SDS011;67394;52.522;13.622;2023-08-21T04:28:30;11.15;;;7.47;;
78143;SDS011;67394;52.522;13.622;2023-08-21T04:30:57;10.05;;;7.43;;
78143;SDS011;67394;52.522;13.622;2023-08-21T04:35:51;10.70;;;7.40;;
78143;SDS011;67394;52.522;13.622;2023-08-21T04:38:17;9.07;;;6.57;;
78143;SDS011;67394;52.522;13.622;2023-08-21T04:40:44;10.93;;;7.28;;
78143;SDS011;67394;52.522;13.622;2023-08-21T04:43:10;9.63;;;7.10;;
78143;SDS011;67394;52.522;13.622;2023-08-21T04:45:37;9.98;;;6.78;;
78143;SDS011;67394;52.522;13.622;2023-08-21T04:48:04;13.13;;;7.53;;
78143;SDS011;67394;52.522;13.622;2023-08-21T04:50:31;10.88;;;6.78;;
78143;SDS011;67394;52.522;13.622;2023-08-21T04:52:59;10.43;;;7.03;;
78143;SDS011;67394;52.522;13.622;2023-08-21T04:55:25;11.60;;;6.70;;
78143;SDS011;67394;52.522;13.622;2023-08-21T04:57:52;10.13;;;7.53;;
78143;SDS011;67394;52.522;13.622;2023-08-21T05:00:18;9.57;;;6.85;;
78143;SDS011;67394;52.522;13.622;2023-08-21T05:02:45;8.43;;;6.88;;
78143;SDS011;67394;52.522;13.622;2023-08-21T05:05:11;10.00;;;6.90;;
78143;SDS011;67394;52.522;13.622;2023-08-21T05:07:38;10.60;;;7.03;;
78143;SDS011;67394;52.522;13.622;2023-08-21T05:10:05;9.13;;;7.30;;
78143;SDS011;67394;52.522;13.622;2023-08-21T05:12:32;10.98;;;7.50;;
78143;SDS011;67394;52.522;13.622;2023-08-21T05:14:59;10.45;;;7.32;;
78143;SDS011;67394;52.522;13.622;2023-08-21T05:17:25;12.82;;;7.38;;
78143;SDS011;67394;52.522;13.622;2023-08-21T05:19:52;12.43;;;6.95;;
78143;SDS011;67394;52.522;13.622;2023-08-21T05:22:18;8.88;;;6.35;;
78143;SDS011;67394;52.522;13.622;2023-08-21T05:24:45;11.23;;;7.35;;
78143;SDS011;67394;52.522;13.622;2023-08-21T05:27:14;10.00;;;6.70;;
78143;SDS011;67394;52.522;13.622;2023-08-21T05:29:40;9.55;;;6.57;;
78143;SDS011;67394;52.522;13.622;2023-08-21T05:32:07;11.18;;;7.40;;
78143;SDS011;67394;52.522;13.622;2023-08-21T05:34:34;8.27;;;6.22;;
78143;SDS011;67394;52.522;13.622;2023-08-21T05:39:27;11.20;;;6.18;;
78143;SDS011;67394;52.522;13.622;2023-08-21T05:41:53;9.98;;;6.75;;
78143;SDS011;67394;52.522;13.622;2023-08-21T05:44:20;10.77;;;6.70;;
78143;SDS011;67394;52.522;13.622;2023-08-21T05:46:47;8.93;;;6.65;;
78143;SDS011;67394;52.522;13.622;2023-08-21T05:49:14;9.23;;;6.28;;
78143;SDS011;67394;52.522;13.622;2023-08-21T05:51:40;9.65;;;6.63;;
78143;SDS011;67394;52.522;13.622;2023-08-21T05:54:07;9.00;;;6.38;;
78143;SDS011;67394;52.522;13.622;2023-08-21T05:56:33;10.57;;;6.95;;
78143;SDS011;67394;52.522;13.622;2023-08-21T05:59:00;10.20;;;7.00;;
78143;SDS011;67394;52.522;13.622;2023-08-21T06:03:53;7.50;;;5.95;;
78143;SDS011;67394;52.522;13.622;2023-08-21T06:06:20;9.48;;;6.30;;
78143;SDS011;67394;52.522;13.622;2023-08-21T06:08:47;9.27;;;5.97;;
78143;SDS011;67394;52.522;13.622;2023-08-21T06:11:16;7.60;;;5.95;;
78143;SDS011;67394;52.522;13.622;2023-08-21T06:16:10;9.95;;;6.18;;
78143;SDS011;67394;52.522;13.622;2023-08-21T06:18:36;9.15;;;5.90;;
78143;SDS011;67394;52.522;13.622;2023-08-21T06:23:29;7.80;;;5.70;;
78143;SDS011;67394;52.522;13.622;2023-08-21T06:25:57;8.80;;;5.13;;
78143;SDS011;67394;52.522;13.622;2023-08-21T06:28:23;8.05;;;5.28;;
78143;SDS011;67394;52.522;13.622;2023-08-21T06:30:56;7.68;;;5.95;;
78143;SDS011;67394;52.522;13.622;2023-08-21T06:33:23;8.18;;;5.70;;
78143;SDS011;67394;52.522;13.622;2023-08-21T06:35:50;13.02;;;5.90;;
78143;SDS011;67394;52.522;13.622;2023-08-21T06:38:17;9.10;;;6.20;;
78143;SDS011;67394;52.522;13.622;2023-08-21T06:43:11;9.45;;;5.85;;
78143;SDS011;67394;52.522;13.622;2023-08-21T06:45:39;7.82;;;5.78;;
78143;SDS011;67394;52.522;13.622;2023-08-21T06:48:06;9.13;;;5.80;;
78143;SDS011;67394;52.522;13.622;2023-08-21T06:50:33;7.80;;;5.28;;
78143;SDS011;67394;52.522;13.622;2023-08-21T06:52:59;7.43;;;5.97;;
78143;SDS011;67394;52.522;13.622;2023-08-21T06:55:26;9.90;;;6.40;;
78143;SDS011;67394;52.522;13.622;2023-08-21T06:57:56;7.75;;;5.63;;
78143;SDS011;67394;52.522;13.622;2023-08-21T07:00:22;9.13;;;6.15;;
78143;SDS011;67394;52.522;13.622;2023-08-21T07:02:53;9.20;;;6.93;;
78143;SDS011;67394;52.522;13.622;2023-08-21T07:05:19;8.90;;;6.18;;
78143;SDS011;67394;52.522;13.622;2023-08-21T07:07:46;8.68;;;6.05;;
78143;SDS011;67394;52.522;13.622;2023-08-21T07:10:13;8.05;;;6.43;;
78143;SDS011;67394;52.522;13.622;2023-08-21T07:12:40;7.45;;;6.00;;
78143;SDS011;67394;52.522;13.622;2023-08-21T07:15:06;8.85;;;5.97;;
78143;SDS011;67394;52.522;13.622;2023-08-21T07:17:33;8.15;;;6.13;;
78143;SDS011;67394;52.522;13.622;2023-08-21T07:22:27;10.13;;;6.20;;
78143;SDS011;67394;52.522;13.622;2023-08-21T07:24:53;8.13;;;5.65;;
78143;SDS011;67394;52.522;13.622;2023-08-21T07:27:20;8.27;;;5.57;;
78143;SDS011;67394;52.522;13.622;2023-08-21T07:29:47;7.75;;;6.13;;
78143;SDS011;67394;52.522;13.622;2023-08-21T07:32:13;8.20;;;5.82;;
78143;SDS011;67394;52.522;13.622;2023-08-21T07:34:40;6.93;;;5.43;;
78143;SDS011;67394;52.522;13.622;2023-08-21T07:37:07;6.35;;;5.20;;
78143;SDS011;67394;52.522;13.622;2023-08-21T07:39:34;8.25;;;5.25;;
78143;SDS011;67394;52.522;13.622;2023-08-21T07:42:01;8.75;;;5.45;;
78143;SDS011;67394;52.522;13.622;2023-08-21T07:44:28;9.05;;;5.57;;
78143;SDS011;67394;52.522;13.622;2023-08-21T07:46:54;7.63;;;5.25;;
78143;SDS011;67394;52.522;13.622;2023-08-21T07:49:21;6.53;;;5.13;;
78143;SDS011;67394;52.522;13.622;2023-08-21T07:51:47;6.78;;;4.95;;
78143;SDS011;67394;52.522;13.622;2023-08-21T07:54:14;7.25;;;4.72;;
78143;SDS011;67394;52.522;13.622;2023-08-21T07:56:40;7.68;;;5.03;;
78143;SDS011;67394;52.522;13.622;2023-08-21T07:59:07;8.15;;;4.90;;
78143;SDS011;67394;52.522;13.622;2023-08-21T08:04:00;7.97;;;4.43;;
78143;SDS011;67394;52.522;13.622;2023-08-21T08:06:27;6.25;;;4.68;;
78143;SDS011;67394;52.522;13.622;2023-08-21T08:08:53;6.40;;;4.53;;
78143;SDS011;67394;52.522;13.622;2023-08-21T08:13:46;8.02;;;4.43;;
78143;SDS011;67394;52.522;13.622;2023-08-21T08:16:14;5.15;;;3.53;;
78143;SDS011;67394;52.522;13.622;2023-08-21T08:18:40;6.60;;;3.75;;
78143;SDS011;67394;52.522;13.622;2023-08-21T08:21:09;5.90;;;3.53;;
78143;SDS011;67394;52.522;13.622;2023-08-21T08:23:36;3.97;;;3.20;;
78143;SDS011;67394;52.522;13.622;2023-08-21T08:26:03;5.70;;;2.92;;
78143;SDS011;67394;52.522;13.622;2023-08-21T08:30:55;5.07;;;3.13;;
78143;SDS011;67394;52.522;13.622;2023-08-21T08:33:22;4.97;;;3.28;;
78143;SDS011;67394;52.522;13.622;2023-08-21T08:35:49;5.63;;;3.60;;
78143;SDS011;67394;52.522;13.622;2023-08-21T08:38:16;6.15;;;3.22;;
78143;SDS011;67394;52.522;13.622;2023-08-21T08:40:45;4.65;;;3.38;;
78143;SDS011;67394;52.522;13.622;2023-08-21T08:43:13;5.03;;;2.92;;
78143;SDS011;67394;52.522;13.622;2023-08-21T08:45:41;4.25;;;3.47;;
78143;SDS011;67394;52.522;13.622;2023-08-21T08:48:08;4.97;;;2.95;;
78143;SDS011;67394;52.522;13.622;2023-08-21T08:50:36;3.67;;;3.03;;
78143;SDS011;67394;52.522;13.622;2023-08-21T08:53:04;5.90;;;3.15;;
78143;SDS011;67394;52.522;13.622;2023-08-21T08:55:42;4.30;;;3.08;;
78143;SDS011;67394;52.522;13.622;2023-08-21T08:58:09;3.80;;;2.92;;
78143;SDS011;67394;52.522;13.622;2023-08-21T09:00:35;7.22;;;3.63;;
78143;SDS011;67394;52.522;13.622;2023-08-21T09:03:04;5.95;;;3.25;;
78143;SDS011;67394;52.522;13.622;2023-08-21T09:05:31;5.70;;;3.58;;
78143;SDS011;67394;52.522;13.622;2023-08-21T09:08:17;5.63;;;3.30;;
78143;SDS011;67394;52.522;13.622;2023-08-21T09:10:44;5.70;;;3.10;;
78143;SDS011;67394;52.522;13.622;2023-08-21T09:13:14;4.93;;;3.30;;
78143;SDS011;67394;52.522;13.622;2023-08-21T09:15:44;6.68;;;3.53;;
78143;SDS011;67394;52.522;13.622;2023-08-21T09:18:12;4.45;;;3.03;;
78143;SDS011;67394;52.522;13.622;2023-08-21T09:20:39;5.13;;;3.30;;
78143;SDS011;67394;52.522;13.622;2023-08-21T09:23:06;5.00;;;2.67;;
78143;SDS011;67394;52.522;13.622;2023-08-21T09:25:36;3.90;;;2.60;;
78143;SDS011;67394;52.522;13.622;2023-08-21T09:28:05;4.05;;;2.30;;
78143;SDS011;67394;52.522;13.622;2023-08-21T09:33:18;3.97;;;2.33;;
78143;SDS011;67394;52.522;13.622;2023-08-21T09:35:45;3.60;;;2.40;;
78143;SDS011;67394;52.522;13.622;2023-08-21T09:38:11;5.25;;;2.80;;
78143;SDS011;67394;52.522;13.622;2023-08-21T09:43:08;1.98;;;1.30;;
78143;SDS011;67394;52.522;13.622;2023-08-21T09:45:36;4.22;;;1.60;;
78143;SDS011;67394;52.522;13.622;2023-08-21T09:48:03;2.95;;;1.70;;
78143;SDS011;67394;52.522;13.622;2023-08-21T09:50:35;3.03;;;2.03;;
78143;SDS011;67394;52.522;13.622;2023-08-21T09:55:28;2.17;;;1.50;;
78143;SDS011;67394;52.522;13.622;2023-08-21T09:57:59;2.70;;;1.45;;
78143;SDS011;67394;52.522;13.622;2023-08-21T10:00:31;2.90;;;1.42;;
78143;SDS011;67394;52.522;13.622;2023-08-21T10:03:00;2.55;;;1.40;;
78143;SDS011;67394;52.522;13.622;2023-08-21T10:05:28;3.60;;;1.55;;
78143;SDS011;67394;52.522;13.622;2023-08-21T10:08:02;2.40;;;1.40;;
78143;SDS011;67394;52.522;13.622;2023-08-21T10:10:31;6.03;;;1.55;;
78143;SDS011;67394;52.522;13.622;2023-08-21T10:13:00;2.58;;;1.40;;
78143;SDS011;67394;52.522;13.622;2023-08-21T10:15:28;3.38;;;1.55;;
78143;SDS011;67394;52.522;13.622;2023-08-21T10:20:45;4.07;;;1.50;;
78143;SDS011;67394;52.522;13.622;2023-08-21T10:23:23;2.78;;;1.40;;
78143;SDS011;67394;52.522;13.622;2023-08-21T10:25:54;3.97;;;1.70;;
78143;SDS011;67394;52.522;13.622;2023-08-21T10:28:40;4.30;;;1.90;;
78143;SDS011;67394;52.522;13.622;2023-08-21T10:33:53;2.05;;;1.52;;
78143;SDS011;67394;52.522;13.622;2023-08-21T10:39:32;2.20;;;1.60;;
78143;SDS011;67394;52.522;13.622;2023-08-21T10:42:02;3.20;;;1.42;;
78143;SDS011;67394;52.522;13.622;2023-08-21T10:49:41;2.83;;;1.65;;
78143;SDS011;67394;52.522;13.622;2023-08-21T10:54:47;3.22;;;1.50;;
78143;SDS011;67394;52.522;13.622;2023-08-21T10:57:15;4.18;;;2.22;;
78143;SDS011;67394;52.522;13.622;2023-08-21T11:04:48;5.18;;;1.50;;
78143;SDS011;67394;52.522;13.622;2023-08-21T11:07:15;3.35;;;1.60;;
78143;SDS011;67394;52.522;13.622;2023-08-21T11:09:41;3.63;;;1.42;;
78143;SDS011;67394;52.522;13.622;2023-08-21T11:12:09;1.70;;;1.30;;
78143;SDS011;67394;52.522;13.622;2023-08-21T11:14:40;2.80;;;1.40;;
78143;SDS011;67394;52.522;13.622;2023-08-21T11:17:08;2.63;;;1.42;;
78143;SDS011;67394;52.522;13.622;2023-08-21T11:19:35;3.13;;;1.42;;
78143;SDS011;67394;52.522;13.622;2023-08-21T11:22:03;3.83;;;1.67;;
78143;SDS011;67394;52.522;13.622;2023-08-21T11:24:31;2.95;;;1.48;;
78143;SDS011;67394;52.522;13.622;2023-08-21T11:27:08;3.08;;;1.83;;
78143;SDS011;67394;52.522;13.622;2023-08-21T11:29:36;2.47;;;1.40;;
78143;SDS011;67394;52.522;13.622;2023-08-21T11:32:23;2.80;;;1.40;;
78143;SDS011;67394;52.522;13.622;2023-08-21T11:34:51;3.35;;;1.50;;
78143;SDS011;67394;52.522;13.622;2023-08-21T11:37:23;2.50;;;1.65;;
78143;SDS011;67394;52.522;13.622;2023-08-21T11:39:54;2.78;;;1.45;;
78143;SDS011;67394;52.522;13.622;2023-08-21T11:42:22;2.42;;;1.60;;
78143;SDS011;67394;52.522;13.622;2023-08-21T11:44:56;3.55;;;1.52;;
78143;SDS011;67394;52.522;13.622;2023-08-21T11:47:29;3.13;;;1.95;;
78143;SDS011;67394;52.522;13.622;2023-08-21T11:50:01;2.67;;;1.65;;
78143;SDS011;67394;52.522;13.622;2023-08-21T11:52:32;3.67;;;1.60;;
78143;SDS011;67394;52.522;13.622;2023-08-21T11:54:59;3.03;;;1.80;;
78143;SDS011;67394;52.522;13.622;2023-08-21T11:57:26;2.25;;;1.65;;
78143;SDS011;67394;52.522;13.622;2023-08-21T12:05:06;2.00;;;1.55;;
78143;SDS011;67394;52.522;13.622;2023-08-21T12:07:39;3.55;;;1.50;;
78143;SDS011;67394;52.522;13.622;2023-08-21T12:10:06;2.42;;;1.52;;
78143;SDS011;67394;52.522;13.622;2023-08-21T12:12:34;3.97;;;1.60;;
78143;SDS011;67394;52.522;13.622;2023-08-21T12:15:00;3.60;;;1.80;;
78143;SDS011;67394;52.522;13.622;2023-08-21T12:17:26;3.00;;;1.50;;
78143;SDS011;67394;52.522;13.622;2023-08-21T12:19:53;4.10;;;1.70;;
78143;SDS011;67394;52.522;13.622;2023-08-21T12:22:24;4.55;;;1.90;;
78143;SDS011;67394;52.522;13.622;2023-08-21T12:24:51;2.70;;;1.75;;
78143;SDS011;67394;52.522;13.622;2023-08-21T12:29:44;3.35;;;1.30;;
78143;SDS011;67394;52.522;13.622;2023-08-21T12:32:13;3.10;;;1.70;;
78143;SDS011;67394;52.522;13.622;2023-08-21T12:34:40;2.97;;;1.45;;
78143;SDS011;67394;52.522;13.622;2023-08-21T12:37:07;3.35;;;1.80;;
78143;SDS011;67394;52.522;13.622;2023-08-21T12:39:33;1.85;;;1.45;;
78143;SDS011;67394;52.522;13.622;2023-08-21T12:42:00;2.85;;;1.45;;
78143;SDS011;67394;52.522;13.622;2023-08-21T12:46:54;3.65;;;1.50;;
78143;SDS011;67394;52.522;13.622;2023-08-21T12:49:20;2.83;;;1.63;;
78143;SDS011;67394;52.522;13.622;2023-08-21T12:51:47;2.30;;;1.60;;
78143;SDS011;67394;52.522;13.622;2023-08-21T12:56:40;2.33;;;1.38;;
78143;SDS011;67394;52.522;13.622;2023-08-21T12:59:06;2.08;;;1.60;;
78143;SDS011;67394;52.522;13.622;2023-08-21T13:01:33;1.88;;;1.35;;
78143;SDS011;67394;52.522;13.622;2023-08-21T13:04:00;1.77;;;1.40;;
78143;SDS011;67394;52.522;13.622;2023-08-21T13:06:27;1.83;;;1.48;;
78143;SDS011;67394;52.522;13.622;2023-08-21T13:08:54;2.75;;;1.55;;
78143;SDS011;67394;52.522;13.622;2023-08-21T13:11:20;5.85;;;1.75;;
78143;SDS011;67394;52.522;13.622;2023-08-21T13:13:47;2.95;;;1.60;;
78143;SDS011;67394;52.522;13.622;2023-08-21T13:16:14;5.70;;;2.13;;
78143;SDS011;67394;52.522;13.622;2023-08-21T13:18:41;2.33;;;1.60;;
78143;SDS011;67394;52.522;13.622;2023-08-21T13:21:07;3.00;;;1.48;;
78143;SDS011;67394;52.522;13.622;2023-08-21T13:23:34;1.80;;;1.35;;
78143;SDS011;67394;52.522;13.622;2023-08-21T13:26:01;2.90;;;1.55;;
78143;SDS011;67394;52.522;13.622;2023-08-21T13:28:28;3.88;;;1.55;;
78143;SDS011;67394;52.522;13.622;2023-08-21T13:30:55;2.20;;;1.52;;
78143;SDS011;67394;52.522;13.622;2023-08-21T13:33:21;3.80;;;1.98;;
78143;SDS011;67394;52.522;13.622;2023-08-21T13:38:14;7.30;;;2.10;;
78143;SDS011;67394;52.522;13.622;2023-08-21T13:40:41;3.72;;;1.60;;
78143;SDS011;67394;52.522;13.622;2023-08-21T13:43:07;3.33;;;1.50;;
78143;SDS011;67394;52.522;13.622;2023-08-21T13:45:34;2.38;;;1.50;;
78143;SDS011;67394;52.522;13.622;2023-08-21T13:50:27;3.72;;;1.80;;
78143;SDS011;67394;52.522;13.622;2023-08-21T13:52:53;2.25;;;1.42;;
78143;SDS011;67394;52.522;13.622;2023-08-21T13:55:20;4.35;;;1.67;;
78143;SDS011;67394;52.522;13.622;2023-08-21T14:00:13;4.30;;;1.55;;
78143;SDS011;67394;52.522;13.622;2023-08-21T14:02:40;1.70;;;1.30;;
78143;SDS011;67394;52.522;13.622;2023-08-21T14:05:08;1.55;;;1.17;;
78143;SDS011;67394;52.522;13.622;2023-08-21T14:07:35;2.20;;;1.45;;
78143;SDS011;67394;52.522;13.622;2023-08-21T14:10:03;5.30;;;1.40;;
78143;SDS011;67394;52.522;13.622;2023-08-21T14:12:30;2.15;;;1.23;;
78143;SDS011;67394;52.522;13.622;2023-08-21T14:14:59;3.30;;;1.30;;
78143;SDS011;67394;52.522;13.622;2023-08-21T14:17:27;2.55;;;1.20;;
78143;SDS011;67394;52.522;13.622;2023-08-21T14:19:54;3.88;;;1.20;;
78143;SDS011;67394;52.522;13.622;2023-08-21T14:22:20;3.08;;;1.48;;
78143;SDS011;67394;52.522;13.622;2023-08-21T14:27:13;2.80;;;1.52;;
78143;SDS011;67394;52.522;13.622;2023-08-21T14:32:06;1.98;;;1.40;;
78143;SDS011;67394;52.522;13.622;2023-08-21T14:36:58;3.08;;;1.40;;
78143;SDS011;67394;52.522;13.622;2023-08-21T14:39:25;2.72;;;1.45;;
78143;SDS011;67394;52.522;13.622;2023-08-21T14:44:21;5.30;;;1.40;;
78143;SDS011;67394;52.522;13.622;2023-08-21T14:46:52;2.60;;;1.45;;
78143;SDS011;67394;52.522;13.622;2023-08-21T14:49:19;2.13;;;1.23;;
78143;SDS011;67394;52.522;13.622;2023-08-21T14:51:46;2.58;;;1.40;;
78143;SDS011;67394;52.522;13.622;2023-08-21T14:56:41;1.95;;;1.30;;
78143;SDS011;67394;52.522;13.622;2023-08-21T14:59:07;2.38;;;1.55;;
78143;SDS011;67394;52.522;13.622;2023-08-21T15:01:35;1.77;;;1.30;;
78143;SDS011;67394;52.522;13.622;2023-08-21T15:04:01;2.35;;;1.60;;
78143;SDS011;67394;52.522;13.622;2023-08-21T15:06:28;3.50;;;1.50;;
78143;SDS011;67394;52.522;13.622;2023-08-21T15:11:21;2.08;;;1.30;;
78143;SDS011;67394;52.522;13.622;2023-08-21T15:13:47;3.15;;;1.40;;
78143;SDS011;67394;52.522;13.622;2023-08-21T15:18:44;2.00;;;1.30;;
78143;SDS011;67394;52.522;13.622;2023-08-21T15:23:36;1.65;;;1.10;;
78143;SDS011;67394;52.522;13.622;2023-08-21T15:28:29;7.28;;;1.30;;
78143;SDS011;67394;52.522;13.622;2023-08-21T15:30:57;1.70;;;1.40;;
78143;SDS011;67394;52.522;13.622;2023-08-21T15:33:24;3.33;;;1.33;;
78143;SDS011;67394;52.522;13.622;2023-08-21T15:35:51;3.08;;;1.40;;
78143;SDS011;67394;52.522;13.622;2023-08-21T15:38:17;4.90;;;1.48;;
78143;SDS011;67394;52.522;13.622;2023-08-21T15:43:10;1.75;;;1.20;;
78143;SDS011;67394;52.522;13.622;2023-08-21T15:45:37;1.70;;;1.30;;
78143;SDS011;67394;52.522;13.622;2023-08-21T15:48:04;2.42;;;1.45;;
78143;SDS011;67394;52.522;13.622;2023-08-21T15:50:31;1.65;;;1.10;;
78143;SDS011;67394;52.522;13.622;2023-08-21T15:55:23;2.33;;;1.40;;
78143;SDS011;67394;52.522;13.622;2023-08-21T15:57:51;3.55;;;1.58;;
78143;SDS011;67394;52.522;13.622;2023-08-21T16:02:45;2.63;;;1.35;;
78143;SDS011;67394;52.522;13.622;2023-08-21T16:05:12;2.20;;;1.20;;
78143;SDS011;67394;52.522;13.622;2023-08-21T16:07:39;2.83;;;1.25;;
78143;SDS011;67394;52.522;13.622;2023-08-21T16:12:35;2.17;;;1.20;;
78143;SDS011;67394;52.522;13.622;2023-08-21T16:15:03;1.30;;;1.20;;
78143;SDS011;67394;52.522;13.622;2023-08-21T16:17:29;2.58;;;1.50;;
78143;SDS011;67394;52.522;13.622;2023-08-21T16:19:56;3.47;;;1.40;;
78143;SDS011;67394;52.522;13.622;2023-08-21T16:24:49;3.30;;;1.20;;
78143;SDS011;67394;52.522;13.622;2023-08-21T16:27:15;1.95;;;1.10;;
78143;SDS011;67394;52.522;13.622;2023-08-21T16:29:42;1.67;;;1.10;;
78143;SDS011;67394;52.522;13.622;2023-08-21T16:32:09;2.30;;;1.35;;
78143;SDS011;67394;52.522;13.622;2023-08-21T16:34:36;1.98;;;1.30;;
78143;SDS011;67394;52.522;13.622;2023-08-21T16:37:02;2.00;;;1.42;;
78143;SDS011;67394;52.522;13.622;2023-08-21T16:39:29;2.85;;;1.25;;